KQWM/QWM METAR and TAF weather

Enter ICAO airport designator
Station Type Date Time Source
KQWM METAR 2021/07/29 01:56 UTC NOAA

KQWM 290156Z 30006KT 9999 CLR 32/00 A2943 RMK AO2A SLP960 WND DATA ESTMD T03240001


Station Type Date Time Source
KQWM Decoded METAR 2021/07/29 01:56 UTC NOAA

Station name not available
Jul 28, 2021 - 09:56 PM EDT / 2021.07.29 0156 UTC
Wind: from the WNW (300 degrees) at 7 MPH (6 KT):0
Visibility: greater than 7 mile(s):0
Sky conditions: clear
Temperature: 90.3 F (32.4 C)
Dew Point: 32.2 F (0.1 C)
Relative Humidity: 12%
Pressure (altimeter): 29.43 in. Hg (996 hPa)
ob: KQWM 290156Z 30006KT 9999 CLR 32/00 A2943 RMK AO2A SLP960 WND DATA ESTMD T03240001
cycle: 2

Station Type Date Time Source
KQWM TAF 2016/03/17 15:00 UTC NOAA

TAF KQWM 171500Z 1715/1821 28009KT 9000 HZ SKC QNH2995INS
TEMPO 1715/1717 27015G20KT
BECMG 1807/1808 29012G20KT 8000 HZ SKC QNH2998INS
BECMG 1814/1815 29009KT 9999 NSW SKC QNH3002INS TX26/1811Z TN13/1803Z

Example: see airport list